SAS2875 ENBR-EKCH
Flight info
| Callsign | SAS2875 |
|---|---|
| Flight time | 1h 8m |
| Altitude | 37000 |
| Route | TUXIL DCT ZOL DCT RASVI DCT TESPI |
| Aircraft | A321/M-SDE3FGHIRWY/LB1 |
Departure
| Time | 2026-04-24 13:30 |
|---|---|
| Airport | Bergen Airport, Flesland (ENBR) |
Arrival
| Time | 2026-04-24 14:39 |
|---|---|
| Airport | Copenhagen Kastrup Airport (EKCH) |
| Time | Latitude | Longitude | Altitude | Speed | Heading |
|---|---|---|---|---|---|
| 2026-04-24 12:57 | 60.28933 | 5.22540 | 175 ft | 0 kts | 108° |
| 2026-04-24 13:17 | 60.28936 | 5.22523 | 175 ft | 4 kts | 109° |
| 2026-04-24 13:18 | 60.28945 | 5.22473 | 175 ft | 4 kts | 116° |
| 2026-04-24 13:18 | 60.28959 | 5.22427 | 175 ft | 4 kts | 128° |
| 2026-04-24 13:18 | 60.28977 | 5.22389 | 175 ft | 4 kts | 149° |
| 2026-04-24 13:18 | 60.28994 | 5.22375 | 176 ft | 1 kts | 171° |
| 2026-04-24 13:19 | 60.28998 | 5.22374 | 176 ft | 0 kts | 171° |
| 2026-04-24 13:21 | 60.28995 | 5.22375 | 176 ft | 2 kts | 171° |
| 2026-04-24 13:21 | 60.28974 | 5.22380 | 175 ft | 5 kts | 174° |
| 2026-04-24 13:21 | 60.28947 | 5.22365 | 175 ft | 0 kts | 216° |
| 2026-04-24 13:24 | 60.28943 | 5.22356 | 175 ft | 2 kts | 224° |
| 2026-04-24 13:24 | 60.28921 | 5.22298 | 172 ft | 8 kts | 216° |
| 2026-04-24 13:25 | 60.28851 | 5.22302 | 170 ft | 11 kts | 170° |
| 2026-04-24 13:25 | 60.28767 | 5.22332 | 170 ft | 13 kts | 170° |
| 2026-04-24 13:25 | 60.28666 | 5.22369 | 168 ft | 16 kts | 169° |
| 2026-04-24 13:25 | 60.28547 | 5.22403 | 165 ft | 18 kts | 170° |
| 2026-04-24 13:26 | 60.28411 | 5.22458 | 161 ft | 22 kts | 167° |
| 2026-04-24 13:26 | 60.28254 | 5.22509 | 157 ft | 25 kts | 178° |
| 2026-04-24 13:26 | 60.28096 | 5.22533 | 152 ft | 14 kts | 190° |
| 2026-04-24 13:26 | 60.28078 | 5.22515 | 152 ft | 1 kts | 214° |
| 2026-04-24 13:27 | 60.28072 | 5.22504 | 152 ft | 1 kts | 221° |
| 2026-04-24 13:27 | 60.28059 | 5.22456 | 152 ft | 6 kts | 253° |
| 2026-04-24 13:27 | 60.28057 | 5.22437 | 152 ft | 0 kts | 257° |
| 2026-04-24 13:27 | 60.28057 | 5.22433 | 152 ft | 0 kts | 257° |
| 2026-04-24 13:28 | 60.28054 | 5.22400 | 153 ft | 4 kts | 261° |
| 2026-04-24 13:28 | 60.28052 | 5.22313 | 153 ft | 8 kts | 278° |
| 2026-04-24 13:28 | 60.28100 | 5.22233 | 153 ft | 11 kts | 347° |
| 2026-04-24 13:28 | 60.28143 | 5.22217 | 153 ft | 0 kts | 350° |
| 2026-04-24 13:29 | 60.28159 | 5.22211 | 153 ft | 20 kts | 350° |
| 2026-04-24 13:29 | 60.28620 | 5.22057 | 161 ft | 110 kts | 351° |
| 2026-04-24 13:29 | 60.29619 | 5.21723 | 249 ft | 173 kts | 348° |
| 2026-04-24 13:30 | 60.30909 | 5.21310 | 669 ft | 201 kts | 349° |
| 2026-04-24 13:30 | 60.32371 | 5.20816 | 1050 ft | 225 kts | 349° |
| 2026-04-24 13:30 | 60.33955 | 5.20266 | 1727 ft | 234 kts | 349° |
| 2026-04-24 13:30 | 60.35571 | 5.19712 | 2608 ft | 236 kts | 350° |
| 2026-04-24 13:31 | 60.37202 | 5.19163 | 3474 ft | 239 kts | 351° |
| 2026-04-24 13:31 | 60.38854 | 5.18612 | 4315 ft | 242 kts | 349° |
| 2026-04-24 13:31 | 60.40525 | 5.18051 | 5117 ft | 246 kts | 349° |
| 2026-04-24 13:31 | 60.42229 | 5.17472 | 5779 ft | 252 kts | 348° |
| 2026-04-24 13:32 | 60.43961 | 5.16879 | 5951 ft | 253 kts | 348° |
| 2026-04-24 13:32 | 60.45698 | 5.16287 | 6004 ft | 253 kts | 348° |
| 2026-04-24 13:32 | 60.47404 | 5.15496 | 6007 ft | 251 kts | 333° |
| 2026-04-24 13:32 | 60.48664 | 5.13156 | 6009 ft | 250 kts | 298° |
| 2026-04-24 13:33 | 60.48994 | 5.09691 | 6010 ft | 257 kts | 270° |
| 2026-04-24 13:33 | 60.48795 | 5.06080 | 6011 ft | 259 kts | 264° |
| 2026-04-24 13:33 | 60.48454 | 5.02489 | 6007 ft | 259 kts | 261° |
| 2026-04-24 13:33 | 60.47700 | 4.99158 | 6005 ft | 268 kts | 231° |
| 2026-04-24 13:34 | 60.46068 | 4.97235 | 6305 ft | 284 kts | 193° |
| 2026-04-24 13:34 | 60.44073 | 4.97041 | 7080 ft | 290 kts | 181° |
| 2026-04-24 13:34 | 60.42043 | 4.97397 | 7823 ft | 295 kts | 176° |
| 2026-04-24 13:34 | 60.39999 | 4.97966 | 8566 ft | 299 kts | 175° |
| 2026-04-24 13:35 | 60.37930 | 4.98578 | 9308 ft | 302 kts | 175° |
| 2026-04-24 13:35 | 60.35835 | 4.99162 | 10055 ft | 305 kts | 176° |
| 2026-04-24 13:35 | 60.33715 | 4.99697 | 10712 ft | 309 kts | 178° |
| 2026-04-24 13:35 | 60.31565 | 5.00191 | 11372 ft | 313 kts | 178° |
| 2026-04-24 13:36 | 60.29391 | 5.00659 | 12021 ft | 316 kts | 179° |
| 2026-04-24 13:36 | 60.27194 | 5.01166 | 12681 ft | 321 kts | 176° |
| 2026-04-24 13:36 | 60.24974 | 5.01893 | 13331 ft | 325 kts | 174° |
| 2026-04-24 13:36 | 60.22733 | 5.02756 | 13977 ft | 330 kts | 173° |
| 2026-04-24 13:37 | 60.20477 | 5.03688 | 14546 ft | 334 kts | 173° |
| 2026-04-24 13:37 | 60.18193 | 5.04644 | 15114 ft | 337 kts | 173° |
| 2026-04-24 13:37 | 60.15896 | 5.05731 | 15679 ft | 343 kts | 165° |
| 2026-04-24 13:37 | 60.13644 | 5.07383 | 16244 ft | 347 kts | 161° |
| 2026-04-24 13:38 | 60.11404 | 5.09272 | 16803 ft | 351 kts | 159° |
| 2026-04-24 13:38 | 60.09164 | 5.11276 | 17358 ft | 354 kts | 159° |
| 2026-04-24 13:38 | 60.06914 | 5.13318 | 17903 ft | 357 kts | 159° |
| 2026-04-24 13:38 | 60.04632 | 5.15366 | 18444 ft | 360 kts | 159° |
| 2026-04-24 13:39 | 60.02328 | 5.17396 | 18915 ft | 363 kts | 159° |
| 2026-04-24 13:39 | 59.99999 | 5.19415 | 19386 ft | 366 kts | 160° |
| 2026-04-24 13:39 | 59.97649 | 5.21425 | 19860 ft | 369 kts | 160° |
| 2026-04-24 13:39 | 59.95281 | 5.23438 | 20330 ft | 371 kts | 160° |
| 2026-04-24 13:40 | 59.92893 | 5.25460 | 20792 ft | 374 kts | 161° |
| 2026-04-24 13:40 | 59.90491 | 5.27493 | 21267 ft | 377 kts | 161° |
| 2026-04-24 13:40 | 59.88065 | 5.29547 | 21727 ft | 380 kts | 161° |
| 2026-04-24 13:40 | 59.85622 | 5.31608 | 22184 ft | 383 kts | 161° |
| 2026-04-24 13:41 | 59.83165 | 5.33674 | 22643 ft | 385 kts | 161° |
| 2026-04-24 13:41 | 59.80677 | 5.35707 | 23085 ft | 386 kts | 166° |
| 2026-04-24 13:41 | 59.78072 | 5.36660 | 23509 ft | 380 kts | 181° |
| 2026-04-24 13:41 | 59.75430 | 5.37107 | 23922 ft | 382 kts | 181° |
| 2026-04-24 13:42 | 59.72771 | 5.37528 | 24288 ft | 385 kts | 182° |
| 2026-04-24 13:42 | 59.70094 | 5.37943 | 24652 ft | 387 kts | 181° |
| 2026-04-24 13:42 | 59.67407 | 5.38366 | 25018 ft | 389 kts | 181° |
| 2026-04-24 13:42 | 59.64705 | 5.38807 | 25384 ft | 391 kts | 181° |
| 2026-04-24 13:43 | 59.61982 | 5.39357 | 25747 ft | 394 kts | 179° |
| 2026-04-24 13:43 | 59.59252 | 5.40033 | 26102 ft | 397 kts | 178° |
| 2026-04-24 13:43 | 59.56508 | 5.40780 | 26456 ft | 400 kts | 178° |
| 2026-04-24 13:43 | 59.53747 | 5.41546 | 26810 ft | 402 kts | 178° |
| 2026-04-24 13:44 | 59.50973 | 5.42301 | 27171 ft | 403 kts | 178° |
| 2026-04-24 13:44 | 59.48182 | 5.43032 | 27521 ft | 405 kts | 178° |
| 2026-04-24 13:44 | 59.45381 | 5.43741 | 27866 ft | 407 kts | 179° |
| 2026-04-24 13:44 | 59.42563 | 5.44446 | 28192 ft | 409 kts | 179° |
| 2026-04-24 13:45 | 59.39736 | 5.45161 | 28522 ft | 412 kts | 178° |
| 2026-04-24 13:45 | 59.36896 | 5.46028 | 28844 ft | 415 kts | 176° |
| 2026-04-24 13:45 | 59.34043 | 5.47053 | 29169 ft | 418 kts | 174° |
| 2026-04-24 13:45 | 59.31184 | 5.48160 | 29485 ft | 420 kts | 174° |
| 2026-04-24 13:46 | 59.28317 | 5.49289 | 29808 ft | 422 kts | 174° |
| 2026-04-24 13:46 | 59.25430 | 5.50403 | 30118 ft | 423 kts | 174° |
| 2026-04-24 13:46 | 59.22535 | 5.51488 | 30400 ft | 425 kts | 175° |
| 2026-04-24 13:46 | 59.19623 | 5.52554 | 30665 ft | 426 kts | 175° |
| 2026-04-24 13:47 | 59.16701 | 5.53606 | 30936 ft | 428 kts | 175° |
| 2026-04-24 13:47 | 59.13772 | 5.54650 | 31209 ft | 429 kts | 175° |
| 2026-04-24 13:47 | 59.10834 | 5.55695 | 31466 ft | 430 kts | 175° |
| 2026-04-24 13:47 | 59.07884 | 5.56745 | 31735 ft | 431 kts | 175° |
| 2026-04-24 13:48 | 59.04927 | 5.57796 | 32003 ft | 433 kts | 175° |
| 2026-04-24 13:48 | 59.01961 | 5.58852 | 32271 ft | 434 kts | 175° |
| 2026-04-24 13:48 | 58.98987 | 5.59916 | 32538 ft | 435 kts | 175° |
| 2026-04-24 13:48 | 58.96003 | 5.60984 | 32802 ft | 437 kts | 175° |
| 2026-04-24 13:49 | 58.93010 | 5.62053 | 33057 ft | 438 kts | 175° |
| 2026-04-24 13:49 | 58.90013 | 5.63266 | 33304 ft | 443 kts | 168° |
| 2026-04-24 13:49 | 58.87126 | 5.65479 | 33541 ft | 452 kts | 155° |
| 2026-04-24 13:49 | 58.84483 | 5.68841 | 33776 ft | 458 kts | 143° |
| 2026-04-24 13:50 | 58.82036 | 5.72802 | 34000 ft | 461 kts | 142° |
| 2026-04-24 13:50 | 58.79572 | 5.76786 | 34225 ft | 463 kts | 143° |
| 2026-04-24 13:50 | 58.77098 | 5.80756 | 34428 ft | 464 kts | 143° |
| 2026-04-24 13:50 | 58.74601 | 5.84741 | 34636 ft | 466 kts | 143° |
| 2026-04-24 13:51 | 58.72098 | 5.88721 | 34822 ft | 468 kts | 143° |
| 2026-04-24 13:51 | 58.69585 | 5.92717 | 35018 ft | 470 kts | 143° |
| 2026-04-24 13:51 | 58.67062 | 5.96716 | 35208 ft | 471 kts | 143° |
| 2026-04-24 13:51 | 58.64525 | 6.00733 | 35387 ft | 473 kts | 143° |
| 2026-04-24 13:52 | 58.61983 | 6.04766 | 35566 ft | 475 kts | 142° |
| 2026-04-24 13:52 | 58.59434 | 6.08801 | 35726 ft | 476 kts | 143° |
| 2026-04-24 13:52 | 58.56870 | 6.12843 | 35897 ft | 478 kts | 143° |
| 2026-04-24 13:52 | 58.54294 | 6.16888 | 36064 ft | 480 kts | 143° |
| 2026-04-24 13:53 | 58.51708 | 6.20942 | 36238 ft | 481 kts | 143° |
| 2026-04-24 13:53 | 58.49115 | 6.25000 | 36407 ft | 482 kts | 143° |
| 2026-04-24 13:53 | 58.46516 | 6.29065 | 36569 ft | 484 kts | 142° |
| 2026-04-24 13:53 | 58.43910 | 6.33141 | 36732 ft | 484 kts | 142° |
| 2026-04-24 13:54 | 58.41301 | 6.37215 | 36882 ft | 485 kts | 142° |
| 2026-04-24 13:54 | 58.38681 | 6.41291 | 37044 ft | 486 kts | 142° |
| 2026-04-24 13:54 | 58.33422 | 6.49430 | 37106 ft | 490 kts | 143° |
| 2026-04-24 13:55 | 58.28078 | 6.57662 | 37098 ft | 498 kts | 143° |
| 2026-04-24 13:55 | 58.22663 | 6.65981 | 37090 ft | 504 kts | 143° |
| 2026-04-24 13:56 | 58.17174 | 6.74391 | 37083 ft | 509 kts | 143° |
| 2026-04-24 13:56 | 58.11650 | 6.82820 | 37083 ft | 510 kts | 143° |
| 2026-04-24 13:57 | 58.06122 | 6.91230 | 37075 ft | 510 kts | 143° |
| 2026-04-24 13:57 | 58.00590 | 6.99606 | 37078 ft | 510 kts | 143° |
| 2026-04-24 13:58 | 57.95042 | 7.07955 | 37087 ft | 511 kts | 143° |
| 2026-04-24 13:58 | 57.89486 | 7.16283 | 37089 ft | 511 kts | 143° |
| 2026-04-24 13:59 | 57.83924 | 7.24600 | 37094 ft | 511 kts | 143° |
| 2026-04-24 13:59 | 57.78359 | 7.32896 | 37096 ft | 511 kts | 143° |
| 2026-04-24 14:00 | 57.72783 | 7.41143 | 37097 ft | 510 kts | 143° |
| 2026-04-24 14:00 | 57.67212 | 7.49365 | 37095 ft | 510 kts | 143° |
| 2026-04-24 14:01 | 57.61640 | 7.57568 | 37094 ft | 510 kts | 143° |
| 2026-04-24 14:01 | 57.56054 | 7.65750 | 37096 ft | 510 kts | 144° |
| 2026-04-24 14:02 | 57.50465 | 7.73888 | 37100 ft | 510 kts | 144° |
| 2026-04-24 14:02 | 57.44882 | 7.82002 | 37077 ft | 508 kts | 144° |
| 2026-04-24 14:03 | 57.39311 | 7.90066 | 37080 ft | 508 kts | 144° |
| 2026-04-24 14:03 | 57.33722 | 7.98103 | 37083 ft | 509 kts | 144° |
| 2026-04-24 14:04 | 57.29094 | 8.04818 | 37092 ft | 510 kts | 140° |
| 2026-04-24 14:04 | 57.24073 | 8.14116 | 37097 ft | 512 kts | 135° |
| 2026-04-24 14:05 | 57.19085 | 8.23504 | 37105 ft | 513 kts | 136° |
| 2026-04-24 14:05 | 57.14075 | 8.32862 | 37113 ft | 513 kts | 136° |
| 2026-04-24 14:06 | 57.09043 | 8.42193 | 37120 ft | 514 kts | 136° |
| 2026-04-24 14:06 | 57.04001 | 8.51503 | 37119 ft | 514 kts | 136° |
| 2026-04-24 14:07 | 56.98951 | 8.60817 | 37121 ft | 515 kts | 136° |
| 2026-04-24 14:07 | 56.93899 | 8.70107 | 37122 ft | 515 kts | 136° |
| 2026-04-24 14:08 | 56.91371 | 8.74730 | 36997 ft | 511 kts | 136° |
| 2026-04-24 14:08 | 56.88870 | 8.79295 | 36508 ft | 505 kts | 136° |
| 2026-04-24 14:08 | 56.86407 | 8.83789 | 35703 ft | 496 kts | 136° |
| 2026-04-24 14:08 | 56.83971 | 8.88221 | 34986 ft | 490 kts | 136° |
| 2026-04-24 14:09 | 56.81581 | 8.92563 | 34867 ft | 478 kts | 137° |
| 2026-04-24 14:09 | 56.79241 | 8.96798 | 33951 ft | 474 kts | 137° |
| 2026-04-24 14:09 | 56.76899 | 9.01021 | 32907 ft | 472 kts | 137° |
| 2026-04-24 14:09 | 56.74583 | 9.05195 | 31962 ft | 466 kts | 137° |
| 2026-04-24 14:10 | 56.72292 | 9.09323 | 30957 ft | 460 kts | 137° |
| 2026-04-24 14:10 | 56.70036 | 9.13385 | 30205 ft | 449 kts | 137° |
| 2026-04-24 14:10 | 56.67835 | 9.17337 | 29713 ft | 444 kts | 137° |
| 2026-04-24 14:10 | 56.65637 | 9.21272 | 29189 ft | 441 kts | 137° |
| 2026-04-24 14:11 | 56.63457 | 9.25164 | 28626 ft | 438 kts | 137° |
| 2026-04-24 14:11 | 56.61297 | 9.29016 | 27918 ft | 432 kts | 137° |
| 2026-04-24 14:11 | 56.57067 | 9.36554 | 26254 ft | 417 kts | 137° |
| 2026-04-24 14:12 | 56.55014 | 9.40208 | 25813 ft | 413 kts | 137° |
| 2026-04-24 14:12 | 56.52970 | 9.43841 | 25372 ft | 411 kts | 137° |
| 2026-04-24 14:12 | 56.50932 | 9.47450 | 24934 ft | 409 kts | 137° |
| 2026-04-24 14:12 | 56.48902 | 9.51037 | 24504 ft | 406 kts | 137° |
| 2026-04-24 14:13 | 56.46886 | 9.54593 | 24081 ft | 404 kts | 137° |
| 2026-04-24 14:13 | 56.44876 | 9.58135 | 23664 ft | 402 kts | 137° |
| 2026-04-24 14:13 | 56.42883 | 9.61643 | 23172 ft | 399 kts | 137° |
| 2026-04-24 14:13 | 56.40901 | 9.65130 | 22674 ft | 396 kts | 137° |
| 2026-04-24 14:14 | 56.38924 | 9.68604 | 22248 ft | 395 kts | 137° |
| 2026-04-24 14:14 | 56.36962 | 9.72046 | 21825 ft | 391 kts | 137° |
| 2026-04-24 14:14 | 56.33089 | 9.78816 | 21052 ft | 385 kts | 137° |
| 2026-04-24 14:15 | 56.31174 | 9.82156 | 20785 ft | 386 kts | 137° |
| 2026-04-24 14:15 | 56.29180 | 9.85631 | 20565 ft | 412 kts | 137° |
| 2026-04-24 14:15 | 56.27057 | 9.89323 | 20313 ft | 434 kts | 137° |
| 2026-04-24 14:15 | 56.24869 | 9.93123 | 20067 ft | 440 kts | 137° |
| 2026-04-24 14:16 | 56.22664 | 9.96946 | 19817 ft | 440 kts | 137° |
| 2026-04-24 14:16 | 56.20461 | 10.00758 | 19576 ft | 439 kts | 137° |
| 2026-04-24 14:16 | 56.18264 | 10.04551 | 19336 ft | 438 kts | 137° |
| 2026-04-24 14:17 | 56.13892 | 10.12095 | 18849 ft | 434 kts | 137° |
| 2026-04-24 14:17 | 56.11715 | 10.15834 | 18620 ft | 433 kts | 137° |
| 2026-04-24 14:17 | 56.07385 | 10.23261 | 18126 ft | 429 kts | 137° |
| 2026-04-24 14:18 | 56.05233 | 10.26951 | 17858 ft | 428 kts | 137° |
| 2026-04-24 14:18 | 56.03087 | 10.30622 | 17593 ft | 426 kts | 137° |
| 2026-04-24 14:18 | 56.00947 | 10.34274 | 17331 ft | 424 kts | 137° |
| 2026-04-24 14:18 | 55.98815 | 10.37903 | 17069 ft | 423 kts | 137° |
| 2026-04-24 14:19 | 55.96691 | 10.41509 | 16813 ft | 421 kts | 137° |
| 2026-04-24 14:19 | 55.94572 | 10.45099 | 16553 ft | 419 kts | 137° |
| 2026-04-24 14:19 | 55.92458 | 10.48675 | 16296 ft | 418 kts | 137° |
| 2026-04-24 14:19 | 55.90440 | 10.52376 | 16046 ft | 416 kts | 126° |
| 2026-04-24 14:20 | 55.89078 | 10.56876 | 15807 ft | 412 kts | 110° |
| 2026-04-24 14:20 | 55.88204 | 10.61715 | 15498 ft | 409 kts | 101° |
| 2026-04-24 14:20 | 55.87644 | 10.66640 | 15086 ft | 404 kts | 96° |
| 2026-04-24 14:20 | 55.87234 | 10.71573 | 14673 ft | 401 kts | 95° |
| 2026-04-24 14:21 | 55.86842 | 10.76474 | 14273 ft | 399 kts | 96° |
| 2026-04-24 14:21 | 55.86396 | 10.81338 | 13870 ft | 397 kts | 97° |
| 2026-04-24 14:21 | 55.85879 | 10.86141 | 13430 ft | 394 kts | 99° |
| 2026-04-24 14:21 | 55.85308 | 10.90893 | 12983 ft | 391 kts | 99° |
| 2026-04-24 14:22 | 55.84699 | 10.95597 | 12540 ft | 389 kts | 101° |
| 2026-04-24 14:22 | 55.84028 | 11.00235 | 12113 ft | 386 kts | 102° |
| 2026-04-24 14:22 | 55.82615 | 11.09362 | 11270 ft | 380 kts | 103° |
| 2026-04-24 14:23 | 55.81916 | 11.13867 | 10852 ft | 377 kts | 102° |
| 2026-04-24 14:23 | 55.81234 | 11.18347 | 10444 ft | 373 kts | 102° |
| 2026-04-24 14:23 | 55.80565 | 11.22785 | 10041 ft | 369 kts | 102° |
| 2026-04-24 14:23 | 55.79914 | 11.27139 | 9684 ft | 359 kts | 102° |
| 2026-04-24 14:24 | 55.79288 | 11.31338 | 9499 ft | 346 kts | 101° |
| 2026-04-24 14:24 | 55.78674 | 11.35452 | 9314 ft | 343 kts | 102° |
| 2026-04-24 14:24 | 55.78059 | 11.39545 | 9161 ft | 344 kts | 102° |
| 2026-04-24 14:24 | 55.77455 | 11.43675 | 9806 ft | 346 kts | 99° |
| 2026-04-24 14:25 | 55.77005 | 11.47809 | 10872 ft | 331 kts | 96° |
| 2026-04-24 14:25 | 55.76671 | 11.51747 | 11864 ft | 324 kts | 94° |
| 2026-04-24 14:25 | 55.76379 | 11.55782 | 12609 ft | 326 kts | 93° |
| 2026-04-24 14:25 | 55.76102 | 11.59820 | 12976 ft | 331 kts | 93° |
| 2026-04-24 14:26 | 55.75816 | 11.63876 | 13059 ft | 331 kts | 94° |
| 2026-04-24 14:26 | 55.75517 | 11.67880 | 13069 ft | 331 kts | 94° |
| 2026-04-24 14:26 | 55.75201 | 11.71928 | 13066 ft | 331 kts | 95° |
| 2026-04-24 14:26 | 55.74876 | 11.75968 | 12933 ft | 329 kts | 95° |
| 2026-04-24 14:27 | 55.74548 | 11.79980 | 12531 ft | 327 kts | 95° |
| 2026-04-24 14:27 | 55.74223 | 11.83960 | 12133 ft | 325 kts | 95° |
| 2026-04-24 14:27 | 55.73900 | 11.87915 | 11757 ft | 322 kts | 95° |
| 2026-04-24 14:27 | 55.73578 | 11.91836 | 11379 ft | 320 kts | 95° |
| 2026-04-24 14:28 | 55.73255 | 11.95732 | 11016 ft | 318 kts | 95° |
| 2026-04-24 14:28 | 55.72935 | 11.99593 | 10648 ft | 316 kts | 95° |
| 2026-04-24 14:28 | 55.72616 | 12.03437 | 10289 ft | 314 kts | 95° |
| 2026-04-24 14:28 | 55.72298 | 12.07246 | 9925 ft | 311 kts | 95° |
| 2026-04-24 14:29 | 55.71978 | 12.11032 | 9534 ft | 309 kts | 95° |
| 2026-04-24 14:29 | 55.71660 | 12.14788 | 9169 ft | 307 kts | 95° |
| 2026-04-24 14:29 | 55.71344 | 12.18516 | 8799 ft | 304 kts | 95° |
| 2026-04-24 14:29 | 55.70957 | 12.22185 | 8422 ft | 304 kts | 107° |
| 2026-04-24 14:30 | 55.70304 | 12.24432 | 8177 ft | 304 kts | 127° |
| 2026-04-24 14:30 | 55.68276 | 12.27841 | 7639 ft | 304 kts | 139° |
| 2026-04-24 14:30 | 55.66675 | 12.30263 | 7278 ft | 302 kts | 139° |
| 2026-04-24 14:30 | 55.65075 | 12.32658 | 6930 ft | 300 kts | 139° |
| 2026-04-24 14:31 | 55.63467 | 12.35065 | 6576 ft | 298 kts | 139° |
| 2026-04-24 14:31 | 55.61916 | 12.37345 | 6414 ft | 288 kts | 144° |
| 2026-04-24 14:31 | 55.60149 | 12.38570 | 6194 ft | 264 kts | 180° |
| 2026-04-24 14:31 | 55.58449 | 12.37911 | 5670 ft | 245 kts | 218° |
| 2026-04-24 14:32 | 55.57125 | 12.36029 | 4982 ft | 242 kts | 226° |
| 2026-04-24 14:32 | 55.55874 | 12.34045 | 4359 ft | 240 kts | 227° |
| 2026-04-24 14:32 | 55.54645 | 12.32087 | 3843 ft | 237 kts | 228° |
| 2026-04-24 14:32 | 55.53407 | 12.30130 | 3426 ft | 240 kts | 227° |
| 2026-04-24 14:33 | 55.52164 | 12.28183 | 3076 ft | 238 kts | 227° |
| 2026-04-24 14:33 | 55.50844 | 12.26420 | 2751 ft | 241 kts | 210° |
| 2026-04-24 14:33 | 55.49213 | 12.25762 | 2538 ft | 246 kts | 180° |
| 2026-04-24 14:33 | 55.47566 | 12.26554 | 2498 ft | 248 kts | 150° |
| 2026-04-24 14:34 | 55.46217 | 12.28442 | 2495 ft | 249 kts | 129° |
| 2026-04-24 14:34 | 55.45311 | 12.30982 | 2501 ft | 244 kts | 107° |
| 2026-04-24 14:34 | 55.44936 | 12.33845 | 2503 ft | 238 kts | 87° |
| 2026-04-24 14:34 | 55.45102 | 12.36700 | 2507 ft | 232 kts | 68° |
| 2026-04-24 14:35 | 55.45752 | 12.39237 | 2509 ft | 225 kts | 50° |
| 2026-04-24 14:35 | 55.46783 | 12.41246 | 2508 ft | 218 kts | 34° |
| 2026-04-24 14:35 | 55.47931 | 12.42998 | 2520 ft | 219 kts | 35° |
| 2026-04-24 14:35 | 55.49050 | 12.44715 | 2507 ft | 207 kts | 35° |
| 2026-04-24 14:36 | 55.50118 | 12.46352 | 2407 ft | 201 kts | 35° |
| 2026-04-24 14:36 | 55.51162 | 12.47953 | 2187 ft | 197 kts | 36° |
| 2026-04-24 14:36 | 55.52200 | 12.49545 | 1925 ft | 198 kts | 35° |
| 2026-04-24 14:36 | 55.53242 | 12.51145 | 1652 ft | 196 kts | 35° |
| 2026-04-24 14:37 | 55.54226 | 12.52664 | 1403 ft | 180 kts | 35° |
| 2026-04-24 14:37 | 55.55124 | 12.54050 | 1155 ft | 163 kts | 35° |
| 2026-04-24 14:37 | 55.55952 | 12.55322 | 931 ft | 153 kts | 34° |
| 2026-04-24 14:37 | 55.56682 | 12.56443 | 735 ft | 147 kts | 36° |
| 2026-04-24 14:38 | 55.57413 | 12.57571 | 535 ft | 145 kts | 35° |
| 2026-04-24 14:38 | 55.58147 | 12.58703 | 341 ft | 142 kts | 36° |
| 2026-04-24 14:38 | 55.58893 | 12.59853 | 156 ft | 137 kts | 37° |
| 2026-04-24 14:38 | 55.59596 | 12.60926 | 24 ft | 109 kts | 40° |
| 2026-04-24 14:39 | 55.59895 | 12.61375 | 19 ft | 41 kts | 42° |
| 2026-04-24 14:39 | 55.60092 | 12.61697 | 24 ft | 37 kts | 46° |
| 2026-04-24 14:39 | 55.60288 | 12.62005 | 21 ft | 37 kts | 38° |
| 2026-04-24 14:39 | 55.60497 | 12.62276 | 23 ft | 36 kts | 24° |
| 2026-04-24 14:40 | 55.60715 | 12.62376 | 27 ft | 30 kts | 14° |
| 2026-04-24 14:40 | 55.60886 | 12.62544 | 24 ft | 29 kts | 40° |
| 2026-04-24 14:40 | 55.61041 | 12.62785 | 23 ft | 30 kts | 41° |
| 2026-04-24 14:40 | 55.61193 | 12.63019 | 30 ft | 29 kts | 41° |
| 2026-04-24 14:41 | 55.61336 | 12.63250 | 27 ft | 28 kts | 41° |
| 2026-04-24 14:41 | 55.61493 | 12.63487 | 24 ft | 30 kts | 40° |
| 2026-04-24 14:41 | 55.61647 | 12.63723 | 24 ft | 30 kts | 41° |
| 2026-04-24 14:41 | 55.61797 | 12.63962 | 27 ft | 29 kts | 42° |
| 2026-04-24 14:42 | 55.61903 | 12.64105 | 30 ft | 29 kts | 28° |
| 2026-04-24 14:42 | 55.62164 | 12.64316 | 18 ft | 33 kts | 24° |
| 2026-04-24 14:42 | 55.62306 | 12.64419 | 19 ft | 31 kts | 17° |
| 2026-04-24 14:42 | 55.62480 | 12.64476 | 20 ft | 20 kts | 342° |
| 2026-04-24 14:43 | 55.62563 | 12.64299 | 22 ft | 17 kts | 310° |
| 2026-04-24 14:43 | 55.62679 | 12.64351 | 22 ft | 10 kts | 74° |
| 2026-04-24 14:43 | 55.62676 | 12.64399 | 21 ft | 5 kts | 99° |
| 2026-04-24 14:43 | 55.62672 | 12.64430 | 21 ft | 0 kts | 102° |